sensor_id;sensor_type;location;lat;lon;timestamp;P1;durP1;ratioP1;P2;durP2;ratioP2
38457;SDS011;24239;48.058;10.486;2024-01-25T00:01:33;4.97;;;2.60;;
38457;SDS011;24239;48.058;10.486;2024-01-25T00:04:19;4.03;;;2.30;;
38457;SDS011;24239;48.058;10.486;2024-01-25T00:07:07;4.35;;;2.30;;
38457;SDS011;24239;48.058;10.486;2024-01-25T00:09:53;3.80;;;2.30;;
38457;SDS011;24239;48.058;10.486;2024-01-25T00:12:39;4.93;;;2.95;;
38457;SDS011;24239;48.058;10.486;2024-01-25T00:15:26;3.78;;;2.20;;
38457;SDS011;24239;48.058;10.486;2024-01-25T00:18:11;4.65;;;2.30;;
38457;SDS011;24239;48.058;10.486;2024-01-25T00:20:57;3.90;;;2.55;;
38457;SDS011;24239;48.058;10.486;2024-01-25T00:23:43;4.07;;;2.38;;
38457;SDS011;24239;48.058;10.486;2024-01-25T00:26:29;4.57;;;2.13;;
38457;SDS011;24239;48.058;10.486;2024-01-25T00:29:15;4.00;;;1.98;;
38457;SDS011;24239;48.058;10.486;2024-01-25T00:32:01;4.30;;;2.05;;
38457;SDS011;24239;48.058;10.486;2024-01-25T00:34:48;3.65;;;1.98;;
38457;SDS011;24239;48.058;10.486;2024-01-25T00:37:34;2.95;;;1.92;;
38457;SDS011;24239;48.058;10.486;2024-01-25T00:40:20;2.65;;;1.90;;
38457;SDS011;24239;48.058;10.486;2024-01-25T00:43:06;4.35;;;2.30;;
38457;SDS011;24239;48.058;10.486;2024-01-25T00:45:53;3.22;;;2.08;;
38457;SDS011;24239;48.058;10.486;2024-01-25T00:48:39;2.70;;;2.03;;
38457;SDS011;24239;48.058;10.486;2024-01-25T00:51:25;3.17;;;2.03;;
38457;SDS011;24239;48.058;10.486;2024-01-25T00:54:12;4.45;;;2.13;;
38457;SDS011;24239;48.058;10.486;2024-01-25T00:56:59;4.25;;;1.75;;
38457;SDS011;24239;48.058;10.486;2024-01-25T00:59:45;3.50;;;2.35;;
38457;SDS011;24239;48.058;10.486;2024-01-25T01:02:35;3.38;;;2.13;;
38457;SDS011;24239;48.058;10.486;2024-01-25T01:05:24;2.20;;;1.77;;
38457;SDS011;24239;48.058;10.486;2024-01-25T01:08:10;3.20;;;2.03;;
38457;SDS011;24239;48.058;10.486;2024-01-25T01:10:57;3.40;;;2.10;;
38457;SDS011;24239;48.058;10.486;2024-01-25T01:13:43;3.20;;;2.05;;
38457;SDS011;24239;48.058;10.486;2024-01-25T01:16:29;3.85;;;2.15;;
38457;SDS011;24239;48.058;10.486;2024-01-25T01:19:18;3.05;;;2.15;;
38457;SDS011;24239;48.058;10.486;2024-01-25T01:22:04;2.20;;;2.00;;
38457;SDS011;24239;48.058;10.486;2024-01-25T01:24:49;3.05;;;2.17;;
38457;SDS011;24239;48.058;10.486;2024-01-25T01:27:35;2.72;;;2.05;;
38457;SDS011;24239;48.058;10.486;2024-01-25T01:30:21;4.03;;;1.98;;
38457;SDS011;24239;48.058;10.486;2024-01-25T01:33:10;2.25;;;1.70;;
38457;SDS011;24239;48.058;10.486;2024-01-25T01:35:56;4.18;;;2.05;;
38457;SDS011;24239;48.058;10.486;2024-01-25T01:38:42;2.65;;;1.75;;
38457;SDS011;24239;48.058;10.486;2024-01-25T01:41:34;2.63;;;1.75;;
38457;SDS011;24239;48.058;10.486;2024-01-25T01:44:20;2.83;;;1.85;;
38457;SDS011;24239;48.058;10.486;2024-01-25T01:47:06;4.88;;;2.00;;
38457;SDS011;24239;48.058;10.486;2024-01-25T01:49:53;3.03;;;2.05;;
38457;SDS011;24239;48.058;10.486;2024-01-25T01:52:39;3.42;;;2.08;;
38457;SDS011;24239;48.058;10.486;2024-01-25T01:55:25;3.08;;;1.70;;
38457;SDS011;24239;48.058;10.486;2024-01-25T01:58:12;2.80;;;1.88;;
38457;SDS011;24239;48.058;10.486;2024-01-25T02:00:59;7.88;;;1.80;;
38457;SDS011;24239;48.058;10.486;2024-01-25T02:03:45;2.25;;;1.48;;
38457;SDS011;24239;48.058;10.486;2024-01-25T02:06:31;2.30;;;1.67;;
38457;SDS011;24239;48.058;10.486;2024-01-25T02:09:17;2.90;;;1.70;;
38457;SDS011;24239;48.058;10.486;2024-01-25T02:12:03;4.20;;;1.90;;
38457;SDS011;24239;48.058;10.486;2024-01-25T02:14:50;2.03;;;1.60;;
38457;SDS011;24239;48.058;10.486;2024-01-25T02:17:36;2.35;;;1.67;;
38457;SDS011;24239;48.058;10.486;2024-01-25T02:20:22;3.67;;;1.88;;
38457;SDS011;24239;48.058;10.486;2024-01-25T02:23:08;3.45;;;1.38;;
38457;SDS011;24239;48.058;10.486;2024-01-25T02:25:54;1.90;;;1.55;;
38457;SDS011;24239;48.058;10.486;2024-01-25T02:28:40;2.72;;;1.65;;
38457;SDS011;24239;48.058;10.486;2024-01-25T02:31:26;1.73;;;1.38;;
38457;SDS011;24239;48.058;10.486;2024-01-25T02:34:12;1.77;;;1.50;;
38457;SDS011;24239;48.058;10.486;2024-01-25T02:36:58;2.40;;;1.45;;
38457;SDS011;24239;48.058;10.486;2024-01-25T02:39:44;3.05;;;1.70;;
38457;SDS011;24239;48.058;10.486;2024-01-25T02:42:30;1.90;;;1.55;;
38457;SDS011;24239;48.058;10.486;2024-01-25T02:45:16;2.63;;;1.50;;
38457;SDS011;24239;48.058;10.486;2024-01-25T02:48:02;2.53;;;1.73;;
38457;SDS011;24239;48.058;10.486;2024-01-25T02:50:49;3.42;;;2.20;;
38457;SDS011;24239;48.058;10.486;2024-01-25T02:53:35;2.13;;;1.40;;
38457;SDS011;24239;48.058;10.486;2024-01-25T02:56:21;2.78;;;1.65;;
38457;SDS011;24239;48.058;10.486;2024-01-25T02:59:07;3.55;;;1.70;;
38457;SDS011;24239;48.058;10.486;2024-01-25T03:01:53;5.00;;;2.03;;
38457;SDS011;24239;48.058;10.486;2024-01-25T03:04:40;5.32;;;1.60;;
38457;SDS011;24239;48.058;10.486;2024-01-25T03:07:25;5.95;;;1.50;;
38457;SDS011;24239;48.058;10.486;2024-01-25T03:10:11;6.30;;;1.95;;
38457;SDS011;24239;48.058;10.486;2024-01-25T03:12:58;4.05;;;1.83;;
38457;SDS011;24239;48.058;10.486;2024-01-25T03:15:44;2.92;;;1.45;;
38457;SDS011;24239;48.058;10.486;2024-01-25T03:18:30;5.18;;;1.80;;
38457;SDS011;24239;48.058;10.486;2024-01-25T03:21:16;8.98;;;1.65;;
38457;SDS011;24239;48.058;10.486;2024-01-25T03:24:02;4.97;;;1.60;;
38457;SDS011;24239;48.058;10.486;2024-01-25T03:26:48;4.55;;;1.63;;
38457;SDS011;24239;48.058;10.486;2024-01-25T03:29:34;5.40;;;1.50;;
38457;SDS011;24239;48.058;10.486;2024-01-25T03:32:20;5.70;;;1.48;;
38457;SDS011;24239;48.058;10.486;2024-01-25T03:35:07;3.83;;;1.60;;
38457;SDS011;24239;48.058;10.486;2024-01-25T03:37:53;5.63;;;1.38;;
38457;SDS011;24239;48.058;10.486;2024-01-25T03:40:39;3.60;;;1.38;;
38457;SDS011;24239;48.058;10.486;2024-01-25T03:43:25;2.50;;;1.13;;
38457;SDS011;24239;48.058;10.486;2024-01-25T03:46:12;6.00;;;1.60;;
38457;SDS011;24239;48.058;10.486;2024-01-25T03:48:58;4.28;;;1.55;;
38457;SDS011;24239;48.058;10.486;2024-01-25T03:51:44;3.58;;;1.17;;
38457;SDS011;24239;48.058;10.486;2024-01-25T03:54:30;2.60;;;1.20;;
38457;SDS011;24239;48.058;10.486;2024-01-25T03:57:16;3.72;;;1.45;;
38457;SDS011;24239;48.058;10.486;2024-01-25T04:00:02;5.63;;;2.05;;
38457;SDS011;24239;48.058;10.486;2024-01-25T04:02:48;5.97;;;1.50;;
38457;SDS011;24239;48.058;10.486;2024-01-25T04:05:34;7.28;;;1.40;;
38457;SDS011;24239;48.058;10.486;2024-01-25T04:08:20;7.10;;;1.83;;
38457;SDS011;24239;48.058;10.486;2024-01-25T04:11:06;5.88;;;1.80;;
38457;SDS011;24239;48.058;10.486;2024-01-25T04:13:54;5.45;;;1.50;;
38457;SDS011;24239;48.058;10.486;2024-01-25T04:16:40;2.88;;;1.20;;
38457;SDS011;24239;48.058;10.486;2024-01-25T04:19:26;2.55;;;1.20;;
38457;SDS011;24239;48.058;10.486;2024-01-25T04:22:12;3.15;;;1.40;;
38457;SDS011;24239;48.058;10.486;2024-01-25T04:24:58;2.85;;;1.40;;
38457;SDS011;24239;48.058;10.486;2024-01-25T04:27:44;3.25;;;1.48;;
38457;SDS011;24239;48.058;10.486;2024-01-25T04:30:30;5.82;;;1.77;;
38457;SDS011;24239;48.058;10.486;2024-01-25T04:33:17;3.92;;;1.50;;
38457;SDS011;24239;48.058;10.486;2024-01-25T04:36:04;4.05;;;1.50;;
38457;SDS011;24239;48.058;10.486;2024-01-25T04:38:50;6.30;;;1.77;;
38457;SDS011;24239;48.058;10.486;2024-01-25T04:41:36;2.22;;;1.23;;
38457;SDS011;24239;48.058;10.486;2024-01-25T04:44:22;5.05;;;1.73;;
38457;SDS011;24239;48.058;10.486;2024-01-25T04:47:08;3.95;;;1.50;;
38457;SDS011;24239;48.058;10.486;2024-01-25T04:49:55;3.88;;;1.70;;
38457;SDS011;24239;48.058;10.486;2024-01-25T04:52:41;3.70;;;1.38;;
38457;SDS011;24239;48.058;10.486;2024-01-25T04:55:27;4.45;;;1.10;;
38457;SDS011;24239;48.058;10.486;2024-01-25T04:58:13;3.83;;;1.50;;
38457;SDS011;24239;48.058;10.486;2024-01-25T05:00:59;3.97;;;1.35;;
38457;SDS011;24239;48.058;10.486;2024-01-25T05:03:45;2.33;;;1.10;;
38457;SDS011;24239;48.058;10.486;2024-01-25T05:06:31;2.28;;;1.10;;
38457;SDS011;24239;48.058;10.486;2024-01-25T05:09:17;1.75;;;1.23;;
38457;SDS011;24239;48.058;10.486;2024-01-25T05:12:03;4.80;;;1.65;;
38457;SDS011;24239;48.058;10.486;2024-01-25T05:14:50;2.72;;;1.35;;
38457;SDS011;24239;48.058;10.486;2024-01-25T05:17:36;2.70;;;0.98;;
38457;SDS011;24239;48.058;10.486;2024-01-25T05:20:22;3.40;;;1.27;;
38457;SDS011;24239;48.058;10.486;2024-01-25T05:23:08;5.60;;;1.40;;
38457;SDS011;24239;48.058;10.486;2024-01-25T05:25:54;2.83;;;1.20;;
38457;SDS011;24239;48.058;10.486;2024-01-25T05:28:40;4.78;;;1.40;;
38457;SDS011;24239;48.058;10.486;2024-01-25T05:31:25;4.80;;;1.38;;
38457;SDS011;24239;48.058;10.486;2024-01-25T05:34:12;4.90;;;1.30;;
38457;SDS011;24239;48.058;10.486;2024-01-25T05:36:58;3.88;;;1.60;;
38457;SDS011;24239;48.058;10.486;2024-01-25T05:39:44;3.35;;;1.30;;
38457;SDS011;24239;48.058;10.486;2024-01-25T05:42:30;4.70;;;1.23;;
38457;SDS011;24239;48.058;10.486;2024-01-25T05:45:15;3.13;;;1.30;;
38457;SDS011;24239;48.058;10.486;2024-01-25T05:48:05;4.60;;;1.40;;
38457;SDS011;24239;48.058;10.486;2024-01-25T05:50:51;4.30;;;1.20;;
38457;SDS011;24239;48.058;10.486;2024-01-25T05:53:37;5.10;;;1.40;;
38457;SDS011;24239;48.058;10.486;2024-01-25T05:56:23;4.07;;;1.13;;
38457;SDS011;24239;48.058;10.486;2024-01-25T05:59:09;2.33;;;1.13;;
38457;SDS011;24239;48.058;10.486;2024-01-25T06:01:55;1.52;;;1.10;;
38457;SDS011;24239;48.058;10.486;2024-01-25T06:37:32;8.25;;;1.95;;
38457;SDS011;24239;48.058;10.486;2024-01-25T06:41:41;5.45;;;1.55;;
38457;SDS011;24239;48.058;10.486;2024-01-25T06:44:27;3.42;;;1.73;;
38457;SDS011;24239;48.058;10.486;2024-01-25T06:49:46;4.28;;;1.30;;
38457;SDS011;24239;48.058;10.486;2024-01-25T06:52:36;3.83;;;1.30;;
38457;SDS011;24239;48.058;10.486;2024-01-25T06:55:22;5.70;;;1.55;;
38457;SDS011;24239;48.058;10.486;2024-01-25T06:58:08;4.80;;;1.35;;
38457;SDS011;24239;48.058;10.486;2024-01-25T07:00:53;10.63;;;1.67;;
38457;SDS011;24239;48.058;10.486;2024-01-25T07:03:40;4.10;;;1.35;;
38457;SDS011;24239;48.058;10.486;2024-01-25T07:06:26;5.60;;;1.35;;
38457;SDS011;24239;48.058;10.486;2024-01-25T07:09:12;3.70;;;1.60;;
38457;SDS011;24239;48.058;10.486;2024-01-25T07:11:57;2.55;;;1.30;;
38457;SDS011;24239;48.058;10.486;2024-01-25T07:14:43;3.10;;;1.20;;
38457;SDS011;24239;48.058;10.486;2024-01-25T07:17:29;3.85;;;1.35;;
38457;SDS011;24239;48.058;10.486;2024-01-25T07:20:15;3.03;;;1.20;;
38457;SDS011;24239;48.058;10.486;2024-01-25T07:23:00;3.53;;;1.45;;
38457;SDS011;24239;48.058;10.486;2024-01-25T07:25:46;2.83;;;1.13;;
38457;SDS011;24239;48.058;10.486;2024-01-25T07:28:32;1.95;;;1.30;;
38457;SDS011;24239;48.058;10.486;2024-01-25T07:31:17;5.32;;;1.35;;
38457;SDS011;24239;48.058;10.486;2024-01-25T07:34:03;3.53;;;1.25;;
38457;SDS011;24239;48.058;10.486;2024-01-25T07:36:49;2.60;;;1.23;;
38457;SDS011;24239;48.058;10.486;2024-01-25T07:39:34;2.15;;;1.00;;
38457;SDS011;24239;48.058;10.486;2024-01-25T07:42:20;5.20;;;1.40;;
38457;SDS011;24239;48.058;10.486;2024-01-25T07:45:06;2.33;;;1.00;;
38457;SDS011;24239;48.058;10.486;2024-01-25T07:47:52;4.35;;;1.33;;
38457;SDS011;24239;48.058;10.486;2024-01-25T07:50:38;2.55;;;1.10;;
38457;SDS011;24239;48.058;10.486;2024-01-25T07:53:23;2.63;;;0.98;;
38457;SDS011;24239;48.058;10.486;2024-01-25T07:56:09;2.00;;;0.90;;
38457;SDS011;24239;48.058;10.486;2024-01-25T07:58:56;3.55;;;1.15;;
38457;SDS011;24239;48.058;10.486;2024-01-25T08:01:41;8.43;;;1.50;;
38457;SDS011;24239;48.058;10.486;2024-01-25T08:04:27;4.60;;;1.67;;
38457;SDS011;24239;48.058;10.486;2024-01-25T08:12:10;5.35;;;1.65;;
38457;SDS011;24239;48.058;10.486;2024-01-25T08:17:08;4.65;;;1.40;;
38457;SDS011;24239;48.058;10.486;2024-01-25T08:19:54;1.30;;;0.90;;
38457;SDS011;24239;48.058;10.486;2024-01-25T08:22:40;3.42;;;1.20;;
38457;SDS011;24239;48.058;10.486;2024-01-25T08:25:27;2.75;;;1.10;;
38457;SDS011;24239;48.058;10.486;2024-01-25T08:28:13;3.50;;;1.70;;
38457;SDS011;24239;48.058;10.486;2024-01-25T08:31:01;4.80;;;1.52;;
38457;SDS011;24239;48.058;10.486;2024-01-25T08:33:47;3.03;;;1.55;;
38457;SDS011;24239;48.058;10.486;2024-01-25T08:36:33;1.55;;;1.10;;
38457;SDS011;24239;48.058;10.486;2024-01-25T08:39:19;4.03;;;2.80;;
38457;SDS011;24239;48.058;10.486;2024-01-25T08:42:05;3.47;;;1.50;;
38457;SDS011;24239;48.058;10.486;2024-01-25T08:44:51;6.00;;;1.60;;
38457;SDS011;24239;48.058;10.486;2024-01-25T08:47:37;3.85;;;1.70;;
38457;SDS011;24239;48.058;10.486;2024-01-25T08:50:23;4.20;;;1.52;;
38457;SDS011;24239;48.058;10.486;2024-01-25T08:53:09;6.43;;;1.88;;
38457;SDS011;24239;48.058;10.486;2024-01-25T08:55:55;4.80;;;1.70;;
38457;SDS011;24239;48.058;10.486;2024-01-25T08:58:40;5.75;;;1.75;;
38457;SDS011;24239;48.058;10.486;2024-01-25T09:01:26;5.60;;;1.60;;
38457;SDS011;24239;48.058;10.486;2024-01-25T09:04:12;5.85;;;2.00;;
38457;SDS011;24239;48.058;10.486;2024-01-25T09:06:59;2.60;;;1.63;;
38457;SDS011;24239;48.058;10.486;2024-01-25T09:09:44;3.13;;;2.08;;
38457;SDS011;24239;48.058;10.486;2024-01-25T09:12:30;2.50;;;1.60;;
38457;SDS011;24239;48.058;10.486;2024-01-25T09:15:16;3.38;;;1.65;;
38457;SDS011;24239;48.058;10.486;2024-01-25T09:18:02;1.70;;;1.52;;
38457;SDS011;24239;48.058;10.486;2024-01-25T09:20:50;3.28;;;1.77;;
38457;SDS011;24239;48.058;10.486;2024-01-25T09:23:36;6.05;;;1.67;;
38457;SDS011;24239;48.058;10.486;2024-01-25T09:26:22;3.00;;;1.70;;
38457;SDS011;24239;48.058;10.486;2024-01-25T09:29:07;5.93;;;2.13;;
38457;SDS011;24239;48.058;10.486;2024-01-25T09:31:53;4.15;;;1.80;;
38457;SDS011;24239;48.058;10.486;2024-01-25T09:34:39;9.60;;;2.22;;
38457;SDS011;24239;48.058;10.486;2024-01-25T09:37:25;7.75;;;2.30;;
38457;SDS011;24239;48.058;10.486;2024-01-25T09:40:11;10.45;;;2.88;;
38457;SDS011;24239;48.058;10.486;2024-01-25T09:42:57;10.15;;;2.78;;
38457;SDS011;24239;48.058;10.486;2024-01-25T09:45:43;8.80;;;2.13;;
38457;SDS011;24239;48.058;10.486;2024-01-25T09:48:29;7.68;;;2.30;;
38457;SDS011;24239;48.058;10.486;2024-01-25T09:51:15;8.50;;;2.50;;
38457;SDS011;24239;48.058;10.486;2024-01-25T09:54:01;10.52;;;2.45;;
38457;SDS011;24239;48.058;10.486;2024-01-25T09:56:47;8.85;;;2.20;;
38457;SDS011;24239;48.058;10.486;2024-01-25T09:59:36;8.63;;;2.33;;
38457;SDS011;24239;48.058;10.486;2024-01-25T10:02:22;12.60;;;2.90;;
38457;SDS011;24239;48.058;10.486;2024-01-25T10:05:07;7.43;;;2.75;;
38457;SDS011;24239;48.058;10.486;2024-01-25T10:07:54;7.55;;;3.20;;
38457;SDS011;24239;48.058;10.486;2024-01-25T10:10:46;11.82;;;2.67;;
38457;SDS011;24239;48.058;10.486;2024-01-25T10:13:32;9.13;;;2.65;;
38457;SDS011;24239;48.058;10.486;2024-01-25T10:16:18;10.43;;;3.25;;
38457;SDS011;24239;48.058;10.486;2024-01-25T10:19:06;16.33;;;2.60;;
38457;SDS011;24239;48.058;10.486;2024-01-25T10:21:53;2.85;;;1.77;;
38457;SDS011;24239;48.058;10.486;2024-01-25T10:24:39;11.32;;;2.80;;
38457;SDS011;24239;48.058;10.486;2024-01-25T10:27:25;14.63;;;3.30;;
38457;SDS011;24239;48.058;10.486;2024-01-25T10:30:13;12.52;;;2.90;;
38457;SDS011;24239;48.058;10.486;2024-01-25T10:32:59;11.65;;;2.45;;
38457;SDS011;24239;48.058;10.486;2024-01-25T10:35:46;11.90;;;2.50;;
38457;SDS011;24239;48.058;10.486;2024-01-25T10:38:35;11.98;;;3.25;;
38457;SDS011;24239;48.058;10.486;2024-01-25T10:41:22;7.45;;;2.28;;
38457;SDS011;24239;48.058;10.486;2024-01-25T10:44:09;10.75;;;2.50;;
38457;SDS011;24239;48.058;10.486;2024-01-25T10:46:57;12.70;;;2.28;;
38457;SDS011;24239;48.058;10.486;2024-01-25T10:49:46;8.02;;;2.40;;
38457;SDS011;24239;48.058;10.486;2024-01-25T10:52:32;12.18;;;2.70;;
38457;SDS011;24239;48.058;10.486;2024-01-25T10:55:18;6.25;;;2.25;;
38457;SDS011;24239;48.058;10.486;2024-01-25T10:58:06;10.27;;;2.55;;
38457;SDS011;24239;48.058;10.486;2024-01-25T11:00:56;13.88;;;3.38;;
38457;SDS011;24239;48.058;10.486;2024-01-25T11:03:47;10.27;;;2.50;;
38457;SDS011;24239;48.058;10.486;2024-01-25T11:06:32;7.35;;;2.50;;
38457;SDS011;24239;48.058;10.486;2024-01-25T11:09:19;12.38;;;2.60;;
38457;SDS011;24239;48.058;10.486;2024-01-25T11:12:13;12.65;;;3.17;;
38457;SDS011;24239;48.058;10.486;2024-01-25T11:14:59;14.68;;;2.72;;
38457;SDS011;24239;48.058;10.486;2024-01-25T11:17:53;9.45;;;2.45;;
38457;SDS011;24239;48.058;10.486;2024-01-25T11:20:39;9.20;;;2.38;;
38457;SDS011;24239;48.058;10.486;2024-01-25T11:23:31;10.93;;;2.42;;
38457;SDS011;24239;48.058;10.486;2024-01-25T11:26:17;9.98;;;2.22;;
38457;SDS011;24239;48.058;10.486;2024-01-25T11:29:03;10.70;;;3.65;;
38457;SDS011;24239;48.058;10.486;2024-01-25T11:31:49;9.77;;;2.10;;
38457;SDS011;24239;48.058;10.486;2024-01-25T11:34:36;9.80;;;2.63;;
38457;SDS011;24239;48.058;10.486;2024-01-25T11:37:22;7.80;;;2.50;;
38457;SDS011;24239;48.058;10.486;2024-01-25T11:40:08;8.75;;;2.03;;
38457;SDS011;24239;48.058;10.486;2024-01-25T11:42:54;8.32;;;3.30;;
38457;SDS011;24239;48.058;10.486;2024-01-25T11:45:40;9.13;;;2.10;;
38457;SDS011;24239;48.058;10.486;2024-01-25T11:48:28;6.97;;;1.85;;
38457;SDS011;24239;48.058;10.486;2024-01-25T11:51:13;15.77;;;2.70;;
38457;SDS011;24239;48.058;10.486;2024-01-25T11:53:59;9.10;;;2.35;;
38457;SDS011;24239;48.058;10.486;2024-01-25T11:56:45;6.18;;;2.08;;
38457;SDS011;24239;48.058;10.486;2024-01-25T11:59:32;6.75;;;2.10;;
38457;SDS011;24239;48.058;10.486;2024-01-25T12:02:18;7.30;;;1.83;;
38457;SDS011;24239;48.058;10.486;2024-01-25T12:05:05;7.50;;;1.90;;
38457;SDS011;24239;48.058;10.486;2024-01-25T12:07:51;9.98;;;2.25;;
38457;SDS011;24239;48.058;10.486;2024-01-25T12:10:37;2.97;;;1.50;;
38457;SDS011;24239;48.058;10.486;2024-01-25T12:13:23;6.97;;;2.20;;
38457;SDS011;24239;48.058;10.486;2024-01-25T12:16:09;4.53;;;1.70;;
38457;SDS011;24239;48.058;10.486;2024-01-25T12:18:58;6.65;;;2.20;;
38457;SDS011;24239;48.058;10.486;2024-01-25T12:21:44;6.40;;;2.10;;
38457;SDS011;24239;48.058;10.486;2024-01-25T12:24:30;3.65;;;1.48;;
38457;SDS011;24239;48.058;10.486;2024-01-25T12:27:16;7.60;;;1.75;;
38457;SDS011;24239;48.058;10.486;2024-01-25T12:30:02;4.75;;;1.65;;
38457;SDS011;24239;48.058;10.486;2024-01-25T12:32:49;7.07;;;1.58;;
38457;SDS011;24239;48.058;10.486;2024-01-25T12:35:36;1.58;;;1.25;;
38457;SDS011;24239;48.058;10.486;2024-01-25T12:38:22;6.10;;;1.58;;
38457;SDS011;24239;48.058;10.486;2024-01-25T12:41:08;1.77;;;1.40;;
38457;SDS011;24239;48.058;10.486;2024-01-25T12:43:53;5.47;;;1.35;;
38457;SDS011;24239;48.058;10.486;2024-01-25T12:46:39;5.97;;;1.45;;
38457;SDS011;24239;48.058;10.486;2024-01-25T12:49:25;2.00;;;1.30;;
38457;SDS011;24239;48.058;10.486;2024-01-25T12:52:11;3.72;;;1.38;;
38457;SDS011;24239;48.058;10.486;2024-01-25T12:54:58;5.90;;;1.70;;
38457;SDS011;24239;48.058;10.486;2024-01-25T12:57:43;1.98;;;1.25;;
38457;SDS011;24239;48.058;10.486;2024-01-25T13:00:29;3.97;;;1.63;;
38457;SDS011;24239;48.058;10.486;2024-01-25T13:03:15;3.03;;;1.35;;
38457;SDS011;24239;48.058;10.486;2024-01-25T13:06:01;3.85;;;1.55;;
38457;SDS011;24239;48.058;10.486;2024-01-25T13:08:48;7.05;;;1.55;;
38457;SDS011;24239;48.058;10.486;2024-01-25T13:11:34;1.58;;;1.10;;
38457;SDS011;24239;48.058;10.486;2024-01-25T13:14:20;2.80;;;1.38;;
38457;SDS011;24239;48.058;10.486;2024-01-25T13:17:06;3.45;;;1.20;;
38457;SDS011;24239;48.058;10.486;2024-01-25T13:19:53;2.25;;;1.25;;
38457;SDS011;24239;48.058;10.486;2024-01-25T13:22:39;3.47;;;1.30;;
38457;SDS011;24239;48.058;10.486;2024-01-25T13:25:24;2.53;;;1.33;;
38457;SDS011;24239;48.058;10.486;2024-01-25T13:28:10;1.77;;;1.10;;
38457;SDS011;24239;48.058;10.486;2024-01-25T13:30:56;2.47;;;1.30;;
38457;SDS011;24239;48.058;10.486;2024-01-25T13:33:42;1.70;;;1.20;;
38457;SDS011;24239;48.058;10.486;2024-01-25T13:36:28;3.67;;;1.58;;
38457;SDS011;24239;48.058;10.486;2024-01-25T13:39:24;3.85;;;1.38;;
38457;SDS011;24239;48.058;10.486;2024-01-25T13:42:11;3.20;;;1.23;;
38457;SDS011;24239;48.058;10.486;2024-01-25T13:44:56;3.40;;;1.50;;
38457;SDS011;24239;48.058;10.486;2024-01-25T13:47:42;3.42;;;1.30;;
38457;SDS011;24239;48.058;10.486;2024-01-25T13:50:28;3.03;;;2.13;;
38457;SDS011;24239;48.058;10.486;2024-01-25T13:53:14;1.88;;;1.50;;
38457;SDS011;24239;48.058;10.486;2024-01-25T13:55:59;6.78;;;2.20;;
38457;SDS011;24239;48.058;10.486;2024-01-25T13:58:45;3.63;;;2.08;;
38457;SDS011;24239;48.058;10.486;2024-01-25T14:01:31;2.15;;;1.40;;
38457;SDS011;24239;48.058;10.486;2024-01-25T14:04:17;4.90;;;1.52;;
38457;SDS011;24239;48.058;10.486;2024-01-25T14:07:03;2.20;;;1.30;;
38457;SDS011;24239;48.058;10.486;2024-01-25T14:09:48;3.30;;;1.30;;
38457;SDS011;24239;48.058;10.486;2024-01-25T14:12:34;2.67;;;1.23;;
38457;SDS011;24239;48.058;10.486;2024-01-25T14:15:21;8.10;;;1.67;;
38457;SDS011;24239;48.058;10.486;2024-01-25T14:18:06;1.10;;;1.00;;
38457;SDS011;24239;48.058;10.486;2024-01-25T14:20:52;3.20;;;1.30;;
38457;SDS011;24239;48.058;10.486;2024-01-25T14:23:38;1.95;;;1.23;;
38457;SDS011;24239;48.058;10.486;2024-01-25T14:26:24;2.47;;;1.10;;
38457;SDS011;24239;48.058;10.486;2024-01-25T14:29:10;3.30;;;1.38;;
38457;SDS011;24239;48.058;10.486;2024-01-25T14:32:00;2.83;;;1.60;;
38457;SDS011;24239;48.058;10.486;2024-01-25T14:34:46;5.05;;;1.50;;
38457;SDS011;24239;48.058;10.486;2024-01-25T14:37:32;2.13;;;1.50;;
38457;SDS011;24239;48.058;10.486;2024-01-25T14:40:17;3.40;;;1.63;;
38457;SDS011;24239;48.058;10.486;2024-01-25T14:43:03;3.80;;;1.30;;
38457;SDS011;24239;48.058;10.486;2024-01-25T14:45:49;3.95;;;1.52;;
38457;SDS011;24239;48.058;10.486;2024-01-25T14:48:34;3.35;;;1.77;;
38457;SDS011;24239;48.058;10.486;2024-01-25T14:51:20;3.85;;;1.50;;
38457;SDS011;24239;48.058;10.486;2024-01-25T14:54:06;3.83;;;1.63;;
38457;SDS011;24239;48.058;10.486;2024-01-25T14:56:52;3.80;;;1.40;;
38457;SDS011;24239;48.058;10.486;2024-01-25T14:59:38;2.47;;;1.58;;
38457;SDS011;24239;48.058;10.486;2024-01-25T15:02:23;7.82;;;2.85;;
38457;SDS011;24239;48.058;10.486;2024-01-25T15:05:09;3.80;;;1.98;;
38457;SDS011;24239;48.058;10.486;2024-01-25T15:07:55;4.68;;;1.88;;
38457;SDS011;24239;48.058;10.486;2024-01-25T15:10:41;3.28;;;1.70;;
38457;SDS011;24239;48.058;10.486;2024-01-25T15:13:27;3.42;;;1.70;;
38457;SDS011;24239;48.058;10.486;2024-01-25T15:16:13;3.78;;;1.50;;
38457;SDS011;24239;48.058;10.486;2024-01-25T15:18:59;11.13;;;5.85;;
38457;SDS011;24239;48.058;10.486;2024-01-25T15:21:45;14.40;;;7.38;;
38457;SDS011;24239;48.058;10.486;2024-01-25T15:24:31;6.03;;;3.08;;
38457;SDS011;24239;48.058;10.486;2024-01-25T15:27:17;4.57;;;2.63;;
38457;SDS011;24239;48.058;10.486;2024-01-25T15:30:03;4.22;;;3.25;;
38457;SDS011;24239;48.058;10.486;2024-01-25T15:32:51;9.50;;;3.13;;
38457;SDS011;24239;48.058;10.486;2024-01-25T15:35:36;6.50;;;2.47;;
38457;SDS011;24239;48.058;10.486;2024-01-25T15:38:22;4.93;;;1.90;;
38457;SDS011;24239;48.058;10.486;2024-01-25T15:41:09;3.38;;;2.30;;
38457;SDS011;24239;48.058;10.486;2024-01-25T15:43:56;4.45;;;2.03;;
38457;SDS011;24239;48.058;10.486;2024-01-25T15:46:43;3.08;;;1.80;;
38457;SDS011;24239;48.058;10.486;2024-01-25T15:49:29;3.30;;;1.70;;
38457;SDS011;24239;48.058;10.486;2024-01-25T15:52:15;2.80;;;2.00;;
38457;SDS011;24239;48.058;10.486;2024-01-25T15:55:01;2.65;;;1.95;;
38457;SDS011;24239;48.058;10.486;2024-01-25T15:57:47;3.08;;;1.90;;
38457;SDS011;24239;48.058;10.486;2024-01-25T16:00:33;2.60;;;1.95;;
38457;SDS011;24239;48.058;10.486;2024-01-25T16:03:20;2.00;;;1.80;;
38457;SDS011;24239;48.058;10.486;2024-01-25T16:06:06;4.90;;;2.15;;
38457;SDS011;24239;48.058;10.486;2024-01-25T16:08:51;3.05;;;1.70;;
38457;SDS011;24239;48.058;10.486;2024-01-25T16:11:37;3.05;;;2.28;;
38457;SDS011;24239;48.058;10.486;2024-01-25T16:14:23;3.08;;;2.33;;
38457;SDS011;24239;48.058;10.486;2024-01-25T16:17:08;2.63;;;2.13;;
38457;SDS011;24239;48.058;10.486;2024-01-25T16:19:59;4.05;;;2.05;;
38457;SDS011;24239;48.058;10.486;2024-01-25T16:22:45;3.30;;;1.90;;
38457;SDS011;24239;48.058;10.486;2024-01-25T16:25:30;3.33;;;2.00;;
38457;SDS011;24239;48.058;10.486;2024-01-25T16:28:16;2.17;;;1.95;;
38457;SDS011;24239;48.058;10.486;2024-01-25T16:31:03;3.58;;;2.05;;
38457;SDS011;24239;48.058;10.486;2024-01-25T16:33:50;1.90;;;1.70;;
38457;SDS011;24239;48.058;10.486;2024-01-25T16:36:35;2.80;;;1.88;;
38457;SDS011;24239;48.058;10.486;2024-01-25T16:39:21;3.38;;;3.08;;
38457;SDS011;24239;48.058;10.486;2024-01-25T16:42:07;3.40;;;2.10;;
38457;SDS011;24239;48.058;10.486;2024-01-25T16:44:53;4.03;;;2.22;;
38457;SDS011;24239;48.058;10.486;2024-01-25T16:47:39;4.70;;;2.90;;
38457;SDS011;24239;48.058;10.486;2024-01-25T16:50:25;2.80;;;2.50;;
38457;SDS011;24239;48.058;10.486;2024-01-25T16:53:10;3.50;;;2.45;;
38457;SDS011;24239;48.058;10.486;2024-01-25T16:55:56;2.58;;;2.33;;
38457;SDS011;24239;48.058;10.486;2024-01-25T16:58:43;5.68;;;3.72;;
38457;SDS011;24239;48.058;10.486;2024-01-25T17:01:29;4.35;;;2.80;;
38457;SDS011;24239;48.058;10.486;2024-01-25T17:04:15;7.43;;;4.60;;
38457;SDS011;24239;48.058;10.486;2024-01-25T17:07:00;12.90;;;7.00;;
38457;SDS011;24239;48.058;10.486;2024-01-25T17:09:46;15.02;;;8.45;;